Laconia, New Hampshire
Current Conditions -  °F | °C
As of 2:55 PM on Thursday 30 Oct 2014 (Local Time) from KLCI Reporting Station
Overcast Overcast  
Wind Chill: 52°   Ceiling: 3600
Heat Index: 52°   Visibility: 10mi
Dew Point: 36°   Wind: 8mph
Humidity: 54%   Direction: 300°WNW
Pressure: 29.9"   Gusts: NA
Location:  43.56°N, 71.48°W
Report Text: KLCI 301855Z AUTO 30007KT 10SM BKN036 BKN043 OVC050 11/02 A2990 RMK AO1
Loading
Personal Weather Stations






























Interactive Weather Map New forecast layout! Learn more

10-Day Weather Forecast

Advertisements
Track Severe Weather on mobile